Crystal, Nevada
Current Conditions -  °F | °C
As of 6:12 PM on Friday 31 Oct 2014 (Local Time) from KINS Reporting Station
Clear Clear  
Wind Chill: 73°   Ceiling: Unl
Heat Index: 73°   Visibility: 10mi
Dew Point: 28°   Wind: 15mph
Humidity: 19%   Direction: 160°SSE
Pressure: 29.73"   Gusts: NA
Location:  36.2552°N, 116.039°W
Report Text: KINS 010112Z AUTO 16013KT 10SM CLR 23/M02 A2973 RMK AO2 WSHFT 0059
Loading
Personal Weather Stations






























Interactive Weather Map New forecast layout! Learn more

10-Day Weather Forecast

Advertisements
Track Severe Weather on mobile